Time;durP1;ratioP1;P1;durP2;ratioP2;P2;SDS_P1;SDS_P2;PMS_P1;PMS_P2;Temp;Humidity;BMP_temperature;BMP_pressure;BME280_temperature;BME280_humidity;BME280_pressure;Samples;Min_cycle;Max_cycle;Signal;HPM_P1;HPM_P2
2022/08/12 00:44:58;;;;;;;6.85;3.20;;;;;;;27.71;38.92;102079.72;5033232;28;20042;-73
2022/08/12 00:47:24;;;;;;;5.22;2.45;;;;;;;27.81;38.83;102082.25;5024820;28;20402;-72
2022/08/12 00:49:50;;;;;;;6.18;3.20;;;;;;;27.78;38.96;102077.38;5013562;28;20053;-72
2022/08/12 00:52:17;;;;;;;4.53;2.33;;;;;;;27.51;39.68;102082.13;4995741;28;20054;-72
2022/08/12 00:54:50;;;;;;;5.78;2.55;;;;;;;27.66;39.00;102079.84;5014033;28;20036;-73
2022/08/12 00:57:19;;;;;;;5.22;2.63;;;;;;;27.73;38.87;102080.22;5013600;28;20041;-72
2022/08/12 00:59:48;;;;;;;5.82;2.88;;;;;;;27.52;39.81;102075.47;5013738;28;20041;-72
2022/08/12 01:02:24;;;;;;;5.93;3.70;;;;;;;27.49;39.30;102084.38;5013286;28;20093;-72
2022/08/12 01:13:28;;;;;;;15.65;8.20;;;;;;;27.32;39.97;102082.19;5014047;28;20493;-74
2022/08/12 01:15:57;;;;;;;20.92;8.35;;;;;;;27.28;40.30;102078.41;5013279;28;20068;-72
2022/08/12 01:18:26;;;;;;;17.10;7.82;;;;;;;27.31;40.10;102074.22;5013364;28;20038;-71
2022/08/12 01:20:52;;;;;;;24.20;9.05;;;;;;;27.16;40.85;102082.81;5013004;28;20054;-72
2022/08/12 01:23:36;;;;;;;23.48;9.65;;;;;;;27.19;40.60;102073.91;5013000;28;20560;-72
2022/08/12 01:26:05;;;;;;;26.05;11.00;;;;;;;27.17;40.97;102074.22;5032454;28;20116;-72
2022/08/12 01:28:33;;;;;;;20.55;10.18;;;;;;;27.04;41.08;102088.84;5032960;28;20534;-71
2022/08/12 01:31:03;;;;;;;15.77;7.20;;;;;;;27.15;40.45;102079.22;5033179;28;20407;-72
2022/08/12 01:33:36;;;;;;;15.27;7.28;;;;;;;27.04;41.22;102076.97;5032575;28;20044;-72
2022/08/12 01:36:06;;;;;;;13.18;6.55;;;;;;;27.03;41.00;102078.13;5018253;28;20030;-71
2022/08/12 01:38:33;;;;;;;7.35;5.63;;;;;;;26.89;41.56;102078.06;5013044;28;20040;-72
2022/08/12 01:41:02;;;;;;;8.90;4.95;;;;;;;27.12;40.64;102070.75;5012502;28;20112;-71
2022/08/12 01:43:29;;;;;;;10.57;4.68;;;;;;;26.97;40.86;102076.56;5012538;28;20121;-72
2022/08/12 01:46:24;;;;;;;8.27;4.10;;;;;;;26.91;41.44;102082.19;5013168;28;20029;-72
2022/08/12 01:49:31;;;;;;;6.00;3.55;;;;;;;26.73;41.93;102077.53;5012487;28;20057;-68
2022/08/12 01:52:03;;;;;;;4.93;3.63;;;;;;;26.85;41.21;102077.88;4932243;29;20055;-66
2022/08/12 01:54:37;;;;;;;10.23;3.95;;;;;;;26.69;41.96;102070.16;4932343;29;20050;-72
2022/08/12 01:57:02;;;;;;;6.97;3.58;;;;;;;26.68;41.77;102074.84;4932584;29;20048;-71
2022/08/12 01:59:49;;;;;;;6.78;3.90;;;;;;;26.67;41.95;102080.69;4932846;29;20058;-72
2022/08/12 02:02:29;;;;;;;7.35;3.63;;;;;;;26.70;41.97;102074.53;4932546;29;20035;-73
2022/08/12 02:11:18;;;;;;;;;;;;;;;26.53;42.31;102072.38;4932980;29;20523;-73
2022/08/12 02:14:05;;;;;;;8.02;3.55;;;;;;;26.31;43.01;102074.94;4932598;29;20008;-72
2022/08/12 02:16:45;;;;;;;4.63;3.80;;;;;;;26.38;43.03;102078.13;4932463;29;20152;-72
2022/08/12 02:19:20;;;;;;;8.30;3.67;;;;;;;26.48;42.43;102074.38;4932469;29;20039;-74
2022/08/12 02:22:11;;;;;;;4.90;3.42;;;;;;;26.32;43.04;102068.28;4932736;29;20127;-73
2022/08/12 02:24:38;;;;;;;8.07;3.45;;;;;;;26.10;43.89;102070.88;4932513;29;20044;-71
2022/08/12 02:27:08;;;;;;;8.63;3.92;;;;;;;26.42;42.98;102070.88;4932052;29;20596;-72
2022/08/12 02:29:34;;;;;;;;;;;;;;;26.19;43.46;102068.25;5002530;28;20053;-71
2022/08/12 02:32:20;;;;;;;8.75;3.53;;;;;;;26.32;43.40;102068.28;5012262;28;19917;-73
2022/08/12 02:34:46;;;;;;;7.43;3.83;;;;;;;26.33;43.07;102067.19;5012010;28;20126;-73
2022/08/12 02:37:14;;;;;;;7.20;3.90;;;;;;;26.36;42.94;102058.31;5012034;28;20038;-73
2022/08/12 02:39:48;;;;;;;6.30;3.88;;;;;;;26.20;43.79;102072.66;5012640;28;20382;-72
2022/08/12 02:42:15;;;;;;;5.10;3.53;;;;;;;26.33;43.13;102072.72;5011868;28;20054;-72
2022/08/12 02:44:44;;;;;;;7.32;3.88;;;;;;;26.29;43.13;102073.59;5011792;28;20399;-72
2022/08/12 02:47:10;;;;;;;9.27;4.20;;;;;;;26.41;42.48;102073.94;5011674;28;20038;-72
2022/08/12 02:49:43;;;;;;;7.80;3.83;;;;;;;26.23;43.37;102069.28;5011624;28;20635;-73
2022/08/12 02:52:10;;;;;;;8.73;4.43;;;;;;;26.30;43.02;102062.25;5004683;28;20474;-71
2022/08/12 02:54:37;;;;;;;5.35;3.85;;;;;;;26.29;43.21;102068.09;5016161;28;20054;-73
2022/08/12 02:57:04;;;;;;;12.77;4.45;;;;;;;26.14;43.75;102058.16;5015461;28;20100;-73
2022/08/12 02:59:33;;;;;;;4.55;4.05;;;;;;;25.85;44.22;102068.44;5015397;28;20061;-71
2022/08/12 03:02:02;;;;;;;9.05;4.50;;;;;;;26.03;44.09;102059.38;5015361;28;20034;-72
2022/08/12 03:04:35;;;;;;;5.60;4.22;;;;;;;26.13;43.66;102056.50;5015092;28;20030;-71
2022/08/12 03:07:20;;;;;;;8.43;4.72;;;;;;;26.12;43.42;102043.03;5015670;28;20454;-72
2022/08/12 03:10:03;;;;;;;6.47;4.18;;;;;;;25.66;44.56;102062.13;5015353;28;20462;-72
2022/08/12 03:12:34;;;;;;;6.85;3.97;;;;;;;25.92;44.38;102058.72;5014820;28;20053;-72
2022/08/12 03:15:03;;;;;;;11.40;4.15;;;;;;;26.10;43.59;102054.34;5015166;28;20565;-73
2022/08/12 03:17:53;;;;;;;6.80;4.35;;;;;;;25.45;45.20;102055.25;4996123;28;20078;-73
2022/08/12 03:20:21;;;;;;;7.28;4.50;;;;;;;25.73;44.90;102054.31;4980734;28;20051;-72
2022/08/12 03:22:47;;;;;;;6.15;4.30;;;;;;;25.87;44.61;102066.22;4978116;28;20039;-74
2022/08/12 03:25:16;;;;;;;5.00;4.25;;;;;;;25.85;44.62;102060.19;4995282;28;20368;-72
2022/08/12 03:27:48;;;;;;;6.90;4.43;;;;;;;25.74;44.67;102064.22;4996052;28;20475;-71
2022/08/12 03:30:19;;;;;;;7.15;4.10;;;;;;;25.71;44.60;102062.06;4995312;28;20038;-72
2022/08/12 03:32:49;;;;;;;9.30;4.32;;;;;;;25.62;45.22;102069.34;4995178;28;20471;-72
2022/08/12 03:35:25;;;;;;;4.78;4.00;;;;;;;25.69;44.87;102062.34;4995189;28;20039;-72
2022/08/12 03:37:55;;;;;;;7.68;4.18;;;;;;;25.71;44.73;102056.56;4994956;28;20410;-71
2022/08/12 04:02:33;;;;;;;8.38;6.35;;;;;;;25.45;44.98;102053.31;4992195;28;20088;-71
2022/08/12 04:05:02;;;;;;;10.43;6.50;;;;;;;25.46;45.07;102048.63;4993785;28;20030;-71
2022/08/12 04:07:30;;;;;;;11.18;7.10;;;;;;;25.39;45.34;102042.63;4964532;28;20061;-72
2022/08/12 04:09:56;;;;;;;11.23;6.95;;;;;;;25.34;45.69;102048.19;4994533;28;20039;-73
2022/08/12 04:15:11;;;;;;;12.27;7.32;;;;;;;25.37;45.47;102033.84;4978070;28;20046;-73
2022/08/12 04:17:38;;;;;;;9.65;6.75;;;;;;;25.24;45.69;102041.72;5014204;28;20038;-71
2022/08/12 04:20:10;;;;;;;12.20;7.10;;;;;;;25.22;45.72;102041.19;5001427;28;20041;-70
2022/08/12 04:22:37;;;;;;;18.83;7.60;;;;;;;25.15;45.80;102037.16;5034095;28;20489;-73
2022/08/12 04:25:03;;;;;;;14.98;7.55;;;;;;;25.16;45.85;102044.28;5033974;28;20041;-72
2022/08/12 04:27:30;;;;;;;11.02;7.38;;;;;;;25.02;46.34;102043.38;5033807;28;20056;-71
2022/08/12 04:29:57;;;;;;;11.27;7.07;;;;;;;24.93;46.28;102043.19;5015519;28;20068;-72
2022/08/12 04:32:25;;;;;;;9.73;6.88;;;;;;;25.13;46.10;102039.38;5033216;28;20088;-71
2022/08/12 04:34:51;;;;;;;17.13;7.82;;;;;;;24.87;46.51;102044.34;5033571;28;20498;-72
2022/08/12 04:37:17;;;;;;;11.48;7.30;;;;;;;25.04;46.30;102030.94;5033355;28;20088;-72
2022/08/12 04:39:44;;;;;;;12.48;7.30;;;;;;;24.90;46.56;102032.75;5033628;28;20029;-72
2022/08/12 04:42:10;;;;;;;15.23;6.82;;;;;;;24.99;46.42;102028.25;5033252;28;20049;-72
2022/08/12 04:44:35;;;;;;;14.98;7.68;;;;;;;25.00;46.70;102031.84;5033409;28;20068;-73
2022/08/12 04:47:02;;;;;;;12.43;7.28;;;;;;;24.95;46.66;102034.63;5033084;28;20374;-74
2022/08/12 04:49:31;;;;;;;12.77;7.10;;;;;;;25.00;46.40;102035.38;5033032;28;20057;-69
2022/08/12 04:51:58;;;;;;;12.63;7.18;;;;;;;24.95;46.74;102038.22;5033267;28;20478;-68
2022/08/12 04:54:23;;;;;;;13.93;7.63;;;;;;;25.03;46.50;102036.75;5032100;28;20049;-67
2022/08/12 04:56:52;;;;;;;12.93;7.75;;;;;;;25.00;46.49;102032.63;5029507;28;20040;-69
2022/08/12 04:59:17;;;;;;;12.70;7.30;;;;;;;24.96;46.82;102033.53;5013245;28;20030;-72
2022/08/12 05:01:49;;;;;;;10.57;7.10;;;;;;;25.01;46.71;102033.47;4995425;28;20045;-72
2022/08/12 05:04:15;;;;;;;12.77;6.68;;;;;;;25.12;46.19;102034.97;5013268;28;20458;-73
2022/08/12 05:06:41;;;;;;;15.65;7.13;;;;;;;25.20;46.30;102032.41;5013561;28;20044;-73
2022/08/12 05:09:06;;;;;;;13.00;7.18;;;;;;;25.13;46.03;102039.38;5024090;28;20045;-71
2022/08/12 05:11:32;;;;;;;10.25;6.63;;;;;;;25.09;46.37;102030.06;5026979;28;20390;-72
2022/08/12 05:14:00;;;;;;;16.00;6.93;;;;;;;24.90;47.14;102041.00;5027591;28;20095;-73
2022/08/12 05:16:25;;;;;;;14.43;6.05;;;;;;;25.02;46.52;102044.16;5029440;28;20038;-72
2022/08/12 05:18:51;;;;;;;10.02;6.60;;;;;;;25.11;46.13;102039.69;5032893;28;20094;-72
2022/08/12 05:21:17;;;;;;;8.75;6.22;;;;;;;25.35;45.51;102039.66;5032138;28;20038;-73
2022/08/12 05:23:42;;;;;;;12.50;6.63;;;;;;;25.40;45.52;102036.84;5028673;28;20343;-71
2022/08/12 05:26:08;;;;;;;13.82;6.53;;;;;;;25.41;45.54;102041.25;5006930;28;20048;-70
2022/08/12 05:28:34;;;;;;;10.52;7.53;;;;;;;25.26;45.84;102044.16;5017073;28;20037;-72
2022/08/12 05:31:03;;;;;;;10.63;6.32;;;;;;;25.30;45.52;102047.16;5024935;28;20026;-70
2022/08/12 05:33:39;;;;;;;7.47;5.40;;;;;;;25.41;45.45;102043.19;5026145;28;20425;-71
2022/08/12 05:36:13;;;;;;;15.25;7.40;;;;;;;25.61;45.08;102040.97;5026409;28;20025;-72
2022/08/12 05:38:55;;;;;;;13.13;7.00;;;;;;;25.46;45.04;102049.44;5031576;28;20040;-71
2022/08/12 05:41:21;;;;;;;11.52;6.53;;;;;;;25.36;45.73;102052.28;5029244;28;20516;-72
2022/08/12 05:43:48;;;;;;;11.82;7.38;;;;;;;25.76;44.64;102057.31;5031981;28;20029;-71
2022/08/12 05:46:14;;;;;;;10.85;6.55;;;;;;;25.72;44.73;102053.50;5032148;28;20071;-72
2022/08/12 05:48:40;;;;;;;9.45;6.25;;;;;;;25.79;44.49;102058.63;5017681;28;20053;-72
2022/08/12 05:51:06;;;;;;;10.57;5.05;;;;;;;25.94;44.19;102059.25;5024133;28;20430;-72
2022/08/12 05:53:32;;;;;;;6.82;5.60;;;;;;;25.91;43.97;102053.50;5028180;28;20029;-71
2022/08/12 05:55:57;;;;;;;9.02;6.00;;;;;;;26.02;43.43;102058.53;5031243;28;20038;-71
2022/08/12 05:58:22;;;;;;;8.65;6.50;;;;;;;25.98;43.72;102049.22;5031239;28;20033;-72
2022/08/12 06:00:48;;;;;;;9.63;6.05;;;;;;;26.03;43.62;102059.38;5003162;28;20025;-71
2022/08/12 06:03:16;;;;;;;7.88;5.55;;;;;;;26.12;43.41;102056.78;5019259;28;20041;-70
2022/08/12 06:05:44;;;;;;;9.18;6.45;;;;;;;26.07;43.45;102065.94;5029884;28;20030;-73
2022/08/12 06:08:10;;;;;;;11.45;5.55;;;;;;;26.20;43.16;102061.63;5012807;28;20486;-71
2022/08/12 06:10:36;;;;;;;8.48;5.60;;;;;;;26.28;43.38;102070.00;5013735;28;20431;-65
2022/08/12 06:13:06;;;;;;;7.43;5.63;;;;;;;26.32;42.92;102071.06;5002458;28;20092;-67
2022/08/12 06:15:36;;;;;;;9.07;5.75;;;;;;;26.05;43.50;102066.22;5005705;28;20037;-65
2022/08/12 06:18:07;;;;;;;12.88;5.63;;;;;;;26.31;43.08;102069.44;5027171;28;20049;-64
2022/08/12 06:20:32;;;;;;;11.27;5.82;;;;;;;26.46;42.85;102069.16;5024954;28;20037;-67
2022/08/12 06:22:58;;;;;;;7.18;5.72;;;;;;;26.54;42.82;102079.50;4996322;28;20089;-67
2022/08/12 06:25:26;;;;;;;12.60;5.88;;;;;;;26.56;43.00;102065.41;5028278;28;20083;-66
2022/08/12 06:27:52;;;;;;;7.65;5.75;;;;;;;26.65;42.40;102072.69;5034988;28;20030;-66
2022/08/12 06:30:20;;;;;;;9.68;5.80;;;;;;;26.68;42.71;102071.28;5023117;28;20041;-66
2022/08/12 06:32:48;;;;;;;7.25;5.43;;;;;;;26.66;42.67;102073.50;5029696;28;20083;-66
2022/08/12 06:35:15;;;;;;;8.48;5.03;;;;;;;26.76;42.60;102065.91;5027622;28;20449;-68
2022/08/12 06:37:54;;;;;;;7.10;6.07;;;;;;;26.65;42.46;102066.38;5033113;28;20095;-65
2022/08/12 06:42:46;;;;;;;6.35;5.65;;;;;;;26.91;42.21;102065.63;5035276;28;20037;-65
2022/08/12 06:43:05;;;;;;;10.70;4.97;;;;;;;27.06;41.94;102071.97;5035147;28;20065;-67
2022/08/12 06:45:31;;;;;;;11.55;4.65;;;;;;;27.16;41.79;102066.25;5030186;28;20045;-66
2022/08/12 06:47:58;;;;;;;8.15;4.53;;;;;;;27.17;41.15;102063.19;5020789;28;20038;-68
2022/08/12 06:50:26;;;;;;;8.55;4.78;;;;;;;27.33;41.09;102060.97;5004483;28;20083;-66
2022/08/12 06:52:51;;;;;;;6.30;4.53;;;;;;;27.35;40.78;102058.72;5004377;28;20038;-67
2022/08/12 06:55:19;;;;;;;8.50;3.70;;;;;;;27.43;39.79;102061.56;5032529;28;20477;-67
2022/08/12 06:58:00;;;;;;;6.72;3.63;;;;;;;27.47;39.44;102059.00;5034452;28;20102;-66
2022/08/12 07:00:29;;;;;;;6.00;4.43;;;;;;;27.53;39.75;102063.31;5031751;28;20045;-69
2022/08/12 07:02:55;;;;;;;5.53;3.80;;;;;;;27.75;38.97;102055.88;5013922;28;20034;-68
2022/08/12 07:05:25;;;;;;;7.45;4.10;;;;;;;27.77;39.05;102056.38;5013944;28;20034;-67
2022/08/12 07:08:00;;;;;;;8.13;3.67;;;;;;;27.77;38.91;102050.84;5014302;28;20033;-69
2022/08/12 07:10:26;;;;;;;4.43;3.00;;;;;;;27.86;38.43;102052.88;5014360;28;20030;-66
2022/08/12 07:12:55;;;;;;;7.03;3.40;;;;;;;27.93;38.28;102056.84;5024259;28;20038;-67
2022/08/12 07:15:23;;;;;;;5.45;3.70;;;;;;;27.91;38.17;102058.31;5030664;28;20026;-69
2022/08/12 07:20:49;;;;;;;5.72;3.00;;;;;;;28.33;37.38;102047.59;4972619;28;20175;-66
2022/08/12 07:23:17;;;;;;;5.82;3.60;;;;;;;28.29;37.01;102038.31;4973174;28;20035;-68
2022/08/12 07:25:43;;;;;;;4.80;2.45;;;;;;;28.52;36.45;102050.97;4970074;28;20409;-68
2022/08/12 07:28:13;;;;;;;4.03;2.80;;;;;;;28.60;36.02;102047.47;4969362;28;20030;-67
2022/08/12 07:30:40;;;;;;;5.60;2.75;;;;;;;28.70;36.16;102051.91;4969795;28;20122;-67
2022/08/12 07:33:08;;;;;;;4.43;2.45;;;;;;;28.73;35.91;102050.47;4968632;28;20074;-67
2022/08/12 07:35:55;;;;;;;5.72;2.53;;;;;;;28.75;35.65;102060.09;4969052;28;20035;-66
2022/08/12 07:38:43;;;;;;;4.93;2.55;;;;;;;28.82;34.69;102054.09;4967277;28;20039;-66
2022/08/12 07:41:10;;;;;;;3.70;2.67;;;;;;;29.09;34.78;102054.69;4968785;28;20058;-66
2022/08/12 07:43:39;;;;;;;4.88;2.90;;;;;;;29.11;34.49;102054.41;4968083;28;20038;-68
2022/08/12 07:46:07;;;;;;;12.20;3.35;;;;;;;28.76;35.27;102055.34;4969878;28;20018;-68
2022/08/12 07:48:45;;;;;;;5.13;2.90;;;;;;;28.82;35.69;102060.44;4968813;28;20050;-68
2022/08/12 07:51:11;;;;;;;3.42;2.35;;;;;;;28.97;35.18;102070.31;4968274;28;20123;-69
2022/08/12 07:53:38;;;;;;;7.95;2.67;;;;;;;29.61;33.71;102064.00;4968094;28;20046;-68
2022/08/12 07:56:05;;;;;;;9.55;2.97;;;;;;;29.65;34.16;102070.53;4967265;28;20042;-68
2022/08/12 07:58:31;;;;;;;7.50;2.60;;;;;;;29.80;33.78;102075.63;5009712;28;20037;-68
2022/08/12 08:01:04;;;;;;;8.07;2.67;;;;;;;29.82;33.60;102067.00;5010444;28;20037;-67
2022/08/12 08:03:29;;;;;;;4.03;2.33;;;;;;;29.84;32.82;102065.53;5010311;28;20095;-69
2022/08/12 08:05:55;;;;;;;6.60;2.65;;;;;;;30.06;32.65;102070.94;4991513;28;20042;-69
2022/08/12 08:08:23;;;;;;;8.45;2.10;;;;;;;30.00;32.43;102065.84;5009802;28;20040;-68
2022/08/12 08:10:51;;;;;;;6.53;2.22;;;;;;;30.28;31.56;102056.09;5010000;28;20493;-67
2022/08/12 08:13:17;;;;;;;5.63;2.35;;;;;;;30.31;31.42;102060.97;5009912;28;20111;-68
2022/08/12 08:15:45;;;;;;;3.67;1.98;;;;;;;30.50;30.85;102057.84;5007649;28;20061;-67
2022/08/12 08:18:13;;;;;;;4.13;2.80;;;;;;;30.51;31.24;102056.69;5010095;28;20137;-68
2022/08/12 08:20:41;;;;;;;5.60;2.03;;;;;;;30.80;30.53;102060.38;5013100;28;20046;-66
2022/08/12 08:23:13;;;;;;;4.00;2.00;;;;;;;30.96;30.40;102067.03;5011971;28;20360;-68
2022/08/12 08:25:40;;;;;;;6.57;2.38;;;;;;;31.02;30.17;102067.66;5011526;28;20037;-68
2022/08/12 08:28:11;;;;;;;12.10;2.30;;;;;;;31.10;30.60;102073.19;5012604;28;20118;-67
2022/08/12 08:30:39;;;;;;;7.97;2.42;;;;;;;31.15;30.81;102064.66;5011591;28;20088;-67
2022/08/12 08:33:08;;;;;;;11.20;2.10;;;;;;;31.16;30.58;102071.03;5008818;28;20034;-67
2022/08/12 08:35:34;;;;;;;4.28;2.58;;;;;;;31.37;30.42;102065.53;5009585;28;20429;-67
2022/08/12 08:38:10;;;;;;;15.48;2.30;;;;;;;31.58;30.27;102066.41;5006420;28;20085;-67
2022/08/12 08:43:28;;;;;;;4.85;2.00;;;;;;;31.82;29.60;102055.47;4921602;29;20047;-68
2022/08/12 08:45:55;;;;;;;4.15;1.98;;;;;;;31.75;29.89;102053.22;4922027;29;20036;-68
2022/08/12 08:48:21;;;;;;;5.18;2.20;;;;;;;32.07;29.28;102057.25;4913749;29;20452;-67
2022/08/12 08:50:47;;;;;;;3.08;1.80;;;;;;;31.99;28.46;102050.59;4918793;29;20115;-65
2022/08/12 08:53:12;;;;;;;4.43;1.80;;;;;;;32.39;28.39;102045.31;4913603;29;20088;-69
2022/08/12 08:55:39;;;;;;;7.90;2.30;;;;;;;32.50;28.62;102049.31;4913988;29;20040;-67
2022/08/12 08:58:05;;;;;;;3.92;2.00;;;;;;;32.68;28.08;102047.16;4915920;29;20472;-65
2022/08/12 09:00:31;;;;;;;4.63;2.30;;;;;;;32.78;27.86;102044.75;4930260;29;20032;-67
2022/08/12 09:02:56;;;;;;;3.20;2.20;;;;;;;32.55;28.01;102046.28;4913898;29;20669;-67
2022/08/12 09:05:21;;;;;;;4.38;1.85;;;;;;;32.97;27.41;102052.53;4913590;29;20535;-67
2022/08/12 09:07:48;;;;;;;3.47;2.00;;;;;;;33.14;26.38;102054.31;4913558;29;20043;-67
2022/08/12 09:10:18;;;;;;;9.45;2.15;;;;;;;33.16;26.75;102050.00;4913646;29;20028;-66
2022/08/12 09:15:33;;;;;;;4.90;2.10;;;;;;;33.33;28.02;102055.34;4919365;29;20137;-67
2022/08/12 09:17:59;;;;;;;12.32;1.95;;;;;;;33.39;27.63;102047.56;4913509;29;20036;-69
2022/08/12 09:20:28;;;;;;;3.45;1.90;;;;;;;33.59;27.15;102055.78;4949561;28;20384;-66
2022/08/12 09:22:55;;;;;;;4.30;1.98;;;;;;;33.77;26.47;102049.94;4993126;28;20026;-67
2022/08/12 09:25:22;;;;;;;8.07;2.53;;;;;;;33.77;26.76;102049.94;5012304;28;20037;-67
2022/08/12 09:27:47;;;;;;;7.93;2.08;;;;;;;33.97;26.63;102052.53;5013468;28;20422;-67
2022/08/12 09:30:14;;;;;;;7.80;1.98;;;;;;;33.67;26.52;102051.25;5005018;28;20041;-66
2022/08/12 09:32:53;;;;;;;14.75;2.40;;;;;;;33.28;27.27;102050.00;5001504;28;20387;-67
2022/08/12 09:35:24;;;;;;;2.33;1.95;;;;;;;34.19;25.51;102048.41;5001409;28;20115;-67
2022/08/12 09:37:54;;;;;;;8.60;2.25;;;;;;;34.24;25.84;102051.75;4999600;28;20067;-68
2022/08/12 09:40:22;;;;;;;6.97;2.00;;;;;;;34.64;25.35;102051.69;5001531;28;20018;-67
2022/08/12 09:45:33;;;;;;;4.68;1.75;;;;;;;34.76;24.72;102048.00;5002270;28;20044;-69
2022/08/12 09:48:08;;;;;;;5.07;2.35;;;;;;;34.69;25.09;102051.44;5001139;28;20034;-71
2022/08/12 09:50:35;;;;;;;14.77;2.00;;;;;;;35.05;25.06;102050.38;5002667;28;20048;-69
2022/08/12 09:53:04;;;;;;;5.40;2.72;;;;;;;35.46;24.31;102047.00;5000366;28;20030;-67
2022/08/12 09:55:31;;;;;;;13.32;1.95;;;;;;;35.21;24.57;102049.19;5002180;28;20041;-68
2022/08/12 09:57:57;;;;;;;8.63;2.50;;;;;;;35.34;24.40;102041.50;5001497;28;20177;-67
2022/08/12 10:00:25;;;;;;;3.58;2.03;;;;;;;35.09;24.86;102032.53;5000293;28;20033;-68
2022/08/12 10:03:05;;;;;;;8.15;1.67;;;;;;;34.82;25.30;102022.25;5001580;28;20037;-67
2022/08/12 10:05:32;;;;;;;;;;;;;;;34.93;24.72;102016.94;5000733;28;20045;-67
2022/08/12 10:07:59;;;;;;;2.47;1.52;;;;;;;34.89;24.06;102024.41;5002483;28;20004;-67
2022/08/12 10:10:25;;;;;;;3.53;2.00;;;;;;;35.52;23.29;102016.78;4999516;28;20064;-68
2022/08/12 10:15:44;;;;;;;3.83;2.10;;;;;;;36.25;23.38;102020.31;5004027;28;20648;-70
2022/08/12 10:18:12;;;;;;;6.75;1.85;;;;;;;36.42;22.20;102011.50;4984287;28;20038;-66
2022/08/12 10:20:39;;;;;;;11.60;1.70;;;;;;;36.30;21.38;102008.81;4999038;28;20060;-68
2022/08/12 10:23:06;;;;;;;3.85;2.15;;;;;;;36.05;21.51;102010.34;5008580;28;20437;-67
2022/08/12 10:31:01;;;;;;;8.15;1.92;;;;;;;36.75;21.00;101992.06;5018384;28;20627;-68
2022/08/12 10:33:29;;;;;;;4.50;1.88;;;;;;;36.60;19.80;101992.19;5000237;28;20033;-68
2022/08/12 10:35:57;;;;;;;5.65;2.00;;;;;;;36.25;20.50;101991.53;5000182;28;20493;-68
2022/08/12 10:38:23;;;;;;;6.28;1.70;;;;;;;36.20;20.90;101987.03;5000782;28;20043;-65
2022/08/12 10:43:41;;;;;;;2.30;1.30;;;;;;;37.64;19.18;101980.97;4999363;28;20057;-68
2022/08/12 10:46:17;;;;;;;6.57;1.70;;;;;;;37.32;19.30;101979.75;5001164;28;20510;-67
2022/08/12 10:48:47;;;;;;;8.32;1.80;;;;;;;37.25;19.47;101981.63;5001151;28;20062;-67
2022/08/12 10:51:13;;;;;;;9.90;1.50;;;;;;;37.81;19.32;101971.19;4998992;28;20077;-67
2022/08/12 10:53:40;;;;;;;3.97;1.45;;;;;;;37.74;18.54;101966.28;4999313;28;20042;-67
2022/08/12 10:56:06;;;;;;;3.10;2.10;;;;;;;36.71;18.28;101959.53;5002337;28;20042;-66
2022/08/12 10:58:35;;;;;;;7.88;1.52;;;;;;;37.73;18.30;101961.03;4999267;28;20041;-66
2022/08/12 11:01:04;;;;;;;4.05;1.77;;;;;;;37.50;18.27;101954.75;5006827;28;20026;-68
2022/08/12 11:03:33;;;;;;;7.95;1.42;;;;;;;38.28;18.12;101948.88;5016057;28;20501;-65
2022/08/12 11:05:59;;;;;;;5.22;1.83;;;;;;;38.23;18.13;101946.41;5020968;28;20109;-67
2022/08/12 11:08:26;;;;;;;6.88;1.50;;;;;;;38.58;17.58;101937.50;5026777;28;20034;-66
2022/08/12 11:10:52;;;;;;;2.40;1.48;;;;;;;38.33;17.23;101945.69;5023111;28;20037;-66
2022/08/12 11:13:18;;;;;;;1.88;1.38;;;;;;;38.68;16.40;101937.59;5027301;28;20041;-66
2022/08/12 11:15:44;;;;;;;4.85;1.30;;;;;;;38.89;16.42;101938.94;5007350;28;20037;-67
2022/08/12 11:18:11;;;;;;;3.30;1.05;;;;;;;38.57;16.32;101938.66;5029601;28;20606;-67
2022/08/12 11:20:37;;;;;;;2.25;1.10;;;;;;;38.85;15.94;101930.50;5025031;28;20505;-67
2022/08/12 11:23:02;;;;;;;3.92;1.20;;;;;;;38.65;16.31;101929.13;5030453;28;20052;-68
2022/08/12 11:25:27;;;;;;;3.50;1.67;;;;;;;37.76;16.54;101924.63;5030480;28;20041;-66
2022/08/12 11:27:53;;;;;;;3.20;1.33;;;;;;;37.14;17.43;101919.78;5030531;28;20025;-67
2022/08/12 11:30:19;;;;;;;12.85;1.63;;;;;;;38.26;16.26;101920.38;5029133;28;20037;-67
2022/08/12 11:32:44;;;;;;;2.85;1.50;;;;;;;38.89;15.79;101919.25;5022509;28;20034;-68
2022/08/12 11:35:09;;;;;;;4.60;1.10;;;;;;;39.02;15.46;101918.53;5012071;28;20065;-67
2022/08/12 11:37:37;;;;;;;3.28;1.38;;;;;;;39.22;15.94;101910.63;5013405;28;20096;-65
2022/08/12 11:40:06;;;;;;;7.13;1.58;;;;;;;39.50;15.44;101907.94;5014635;28;20037;-66
2022/08/12 11:42:31;;;;;;;4.68;1.38;;;;;;;38.80;15.66;101907.56;5016191;28;20377;-67
2022/08/12 11:44:57;;;;;;;8.20;1.70;;;;;;;39.44;15.85;101904.72;5013800;28;20038;-68
2022/08/12 11:47:22;;;;;;;3.20;1.60;;;;;;;39.41;15.32;101899.88;5013939;28;20096;-65
2022/08/12 11:49:48;;;;;;;3.88;1.02;;;;;;;39.56;15.16;101905.56;4995866;28;20052;-68
2022/08/12 11:52:13;;;;;;;10.95;2.78;;;;;;;39.43;15.42;101902.31;5014076;28;20041;-67
2022/08/12 11:54:39;;;;;;;4.55;1.63;;;;;;;39.00;15.49;101892.81;5014384;28;20097;-67
2022/08/12 11:57:04;;;;;;;6.68;1.30;;;;;;;39.74;14.84;101898.00;5013987;28;20092;-67
2022/08/12 11:59:31;;;;;;;2.22;1.42;;;;;;;39.40;15.51;101881.38;5013865;28;20490;-67
2022/08/12 12:01:57;;;;;;;6.95;1.30;;;;;;;39.00;15.46;101887.19;5015412;28;20053;-68
2022/08/12 12:04:22;;;;;;;1.88;1.63;;;;;;;39.28;15.67;101892.19;5033429;28;20488;-66
2022/08/12 12:06:47;;;;;;;2.83;1.45;;;;;;;39.11;15.62;101882.47;5033656;28;20433;-69
2022/08/12 12:09:13;;;;;;;6.80;1.65;;;;;;;38.75;15.82;101879.81;5033187;28;20528;-65
2022/08/12 12:11:38;;;;;;;4.43;1.65;;;;;;;39.17;15.49;101874.47;5033019;28;20046;-66
2022/08/12 12:14:04;;;;;;;2.80;1.48;;;;;;;39.74;15.17;101881.09;5033180;28;20063;-66
2022/08/12 12:16:29;;;;;;;2.10;1.20;;;;;;;39.82;14.86;101885.53;5029894;28;20038;-65
2022/08/12 12:18:55;;;;;;;8.73;1.50;;;;;;;39.29;14.56;101880.53;5032940;28;20033;-69
2022/08/12 12:21:20;;;;;;;8.43;1.73;;;;;;;40.08;14.99;101869.09;5032242;28;20077;-67
2022/08/12 12:23:45;;;;;;;8.85;1.42;;;;;;;40.18;14.53;101878.75;5014007;28;20037;-66
2022/08/12 12:26:11;;;;;;;5.10;1.25;;;;;;;39.88;14.70;101886.78;5032332;28;20037;-67
2022/08/12 12:28:40;;;;;;;5.13;1.40;;;;;;;39.86;14.50;101880.72;5032655;28;20034;-67
2022/08/12 12:31:06;;;;;;;3.97;1.30;;;;;;;40.39;14.62;101881.63;5030980;28;20430;-67
2022/08/12 12:33:31;;;;;;;3.03;1.20;;;;;;;40.48;13.92;101886.81;5032206;28;20072;-66
2022/08/12 12:35:56;;;;;;;8.18;1.50;;;;;;;40.71;13.82;101876.72;5032069;28;20025;-67
2022/08/12 12:38:22;;;;;;;4.10;1.73;;;;;;;40.87;13.56;101877.13;5031072;28;20037;-68
2022/08/12 12:40:48;;;;;;;3.78;1.30;;;;;;;40.18;13.97;101868.31;5032279;28;20041;-68
2022/08/12 12:43:14;;;;;;;2.95;1.42;;;;;;;40.33;13.70;101869.13;5032197;28;20033;-67
2022/08/12 12:45:41;;;;;;;4.03;1.25;;;;;;;40.47;14.17;101866.31;5032434;28;20030;-67
2022/08/12 12:48:10;;;;;;;4.90;1.40;;;;;;;40.94;13.53;101856.56;5031787;28;20600;-66
2022/08/12 12:50:37;;;;;;;5.53;1.52;;;;;;;40.71;13.74;101864.66;5027035;28;20071;-66
2022/08/12 12:53:04;;;;;;;4.22;1.40;;;;;;;40.72;13.71;101867.06;5032029;28;20593;-67
2022/08/12 12:55:34;;;;;;;2.90;1.23;;;;;;;39.56;13.93;101854.91;5031793;28;20048;-71
2022/08/12 12:58:15;;;;;;;5.72;1.52;;;;;;;40.36;13.91;101862.66;5032540;28;20121;-66
2022/08/12 13:00:43;;;;;;;3.50;1.45;;;;;;;39.23;14.26;101844.75;5032251;28;20045;-66
2022/08/12 13:03:10;;;;;;;4.38;1.58;;;;;;;40.19;14.09;101850.22;5032293;28;20038;-66
2022/08/12 13:05:35;;;;;;;4.18;1.25;;;;;;;40.86;13.83;101852.16;5027600;28;20108;-65
2022/08/12 13:08:17;;;;;;;3.75;1.17;;;;;;;41.47;13.69;101843.03;5029471;28;20037;-67
2022/08/12 13:10:43;;;;;;;2.78;1.25;;;;;;;41.43;13.08;101841.44;5026407;28;20038;-65
2022/08/12 13:13:08;;;;;;;5.65;1.98;;;;;;;41.27;13.20;101850.41;5027143;28;20064;-68
2022/08/12 13:15:34;;;;;;;4.40;1.63;;;;;;;41.22;13.00;101850.03;5029328;28;20049;-66
2022/08/12 13:18:03;;;;;;;1.80;1.40;;;;;;;40.53;13.23;101844.16;5022146;28;20066;-67